Time;durP1;ratioP1;P1;durP2;ratioP2;P2;SDS_P1;SDS_P2;PMS_P1;PMS_P2;Temp;Humidity;BMP_temperature;BMP_pressure;BME280_temperature;BME280_humidity;BME280_pressure;Samples;Min_cycle;Max_cycle;Signal;HPM_P1;HPM_P2
2022/11/16 00:01:33;;;;;;;5.13;0.60;;;10.10;99.90;;;;;;5061714;28;20465;-65
2022/11/16 00:04:02;;;;;;;4.05;1.27;;;10.00;99.90;;;;;;5059358;28;20476;-65
2022/11/16 00:06:28;;;;;;;2.00;0.75;;;10.00;99.90;;;;;;5061907;28;20451;-65
2022/11/16 00:11:44;;;;;;;4.40;0.30;;;10.20;99.90;;;;;;5062424;28;20036;-67
2022/11/16 00:14:10;;;;;;;3.30;0.40;;;10.30;99.90;;;;;;5040619;28;20025;-65
2022/11/16 00:16:36;;;;;;;3.63;0.82;;;10.40;99.90;;;;;;5060556;28;20044;-65
2022/11/16 00:19:04;;;;;;;8.35;1.15;;;10.60;99.90;;;;;;5055545;28;20493;-66
2022/11/16 00:21:30;;;;;;;4.13;1.17;;;10.80;99.90;;;;;;5057531;28;20064;-66
2022/11/16 00:23:57;;;;;;;3.95;0.52;;;10.90;99.90;;;;;;5038470;28;20025;-65
2022/11/16 00:26:23;;;;;;;2.38;0.40;;;10.90;99.90;;;;;;5054487;28;20024;-67
2022/11/16 00:28:51;;;;;;;2.08;0.28;;;10.70;99.90;;;;;;5060598;28;20034;-67
2022/11/16 00:31:17;;;;;;;2.80;0.50;;;10.60;99.90;;;;;;5061157;28;20472;-68
2022/11/16 00:33:43;;;;;;;2.92;0.40;;;10.60;99.90;;;;;;5050107;28;20033;-69
2022/11/16 00:36:15;;;;;;;5.68;0.70;;;10.60;99.90;;;;;;5055609;28;20506;-69
2022/11/16 00:38:41;;;;;;;5.75;0.65;;;10.50;99.90;;;;;;5051999;28;20817;-66
2022/11/16 00:41:08;;;;;;;1.13;0.17;;;10.40;99.90;;;;;;5058892;28;20099;-68
2022/11/16 00:43:35;;;;;;;0.80;0.22;;;10.40;99.90;;;;;;5039617;28;20032;-68
2022/11/16 00:46:01;;;;;;;2.22;0.88;;;10.30;99.90;;;;;;5054321;28;20029;-69
2022/11/16 00:48:27;;;;;;;2.92;1.13;;;10.30;99.90;;;;;;5054734;28;20029;-66
2022/11/16 00:50:53;;;;;;;4.57;0.30;;;10.30;99.90;;;;;;5062016;28;20051;-66
2022/11/16 00:53:20;;;;;;;2.47;0.22;;;10.40;99.90;;;;;;5063748;28;20601;-66
2022/11/16 00:55:46;;;;;;;5.60;0.40;;;10.50;99.90;;;;;;5056459;28;20040;-63
2022/11/16 00:58:13;;;;;;;5.30;0.70;;;10.50;99.90;;;;;;5054338;28;20057;-67
2022/11/16 01:00:39;;;;;;;2.67;0.28;;;10.50;99.90;;;;;;5062219;28;20119;-67
2022/11/16 01:03:05;;;;;;;4.07;0.40;;;10.60;99.90;;;;;;5057600;28;20059;-67
2022/11/16 01:05:31;;;;;;;4.15;0.50;;;10.50;99.90;;;;;;5048447;28;20025;-68
2022/11/16 01:07:57;;;;;;;1.08;0.08;;;10.40;99.90;;;;;;5061121;28;20379;-68
2022/11/16 01:10:24;;;;;;;1.30;0.10;;;10.40;99.90;;;;;;5059096;28;20056;-68
2022/11/16 01:12:51;;;;;;;3.50;0.28;;;10.40;99.90;;;;;;5058057;28;20040;-72
2022/11/16 01:15:19;;;;;;;0.68;0.15;;;10.20;99.90;;;;;;5045997;28;20075;-71
2022/11/16 01:17:45;;;;;;;3.20;0.20;;;10.10;99.90;;;;;;5057289;28;20037;-72
2022/11/16 01:20:14;;;;;;;2.50;0.30;;;10.10;99.90;;;;;;5062559;28;20035;-73
2022/11/16 01:22:40;;;;;;;2.63;0.50;;;10.00;99.90;;;;;;5051689;28;20025;-72
2022/11/16 01:25:08;;;;;;;1.88;0.28;;;9.90;99.90;;;;;;5053917;28;20029;-71
2022/11/16 01:27:33;;;;;;;4.47;0.63;;;9.80;99.90;;;;;;5059975;28;20037;-71
2022/11/16 01:29:59;;;;;;;2.45;0.20;;;9.60;99.90;;;;;;5053831;28;20031;-70
2022/11/16 01:32:25;;;;;;;2.67;0.40;;;9.50;99.90;;;;;;5055835;28;20051;-69
2022/11/16 01:34:51;;;;;;;11.40;0.60;;;9.40;99.90;;;;;;5056772;28;20115;-69
2022/11/16 01:37:17;;;;;;;2.53;0.30;;;9.30;99.90;;;;;;5062654;28;20044;-68
2022/11/16 01:39:43;;;;;;;6.50;1.42;;;9.30;99.90;;;;;;5055699;28;20051;-67
2022/11/16 01:42:28;;;;;;;1.40;0.30;;;9.30;99.90;;;;;;5053748;28;20526;-67
2022/11/16 01:45:01;;;;;;;1.45;0.13;;;9.30;99.90;;;;;;5037744;28;20037;-67
2022/11/16 01:47:28;;;;;;;5.75;0.55;;;9.30;99.90;;;;;;5061357;28;20060;-67
2022/11/16 01:50:13;;;;;;;1.95;0.35;;;9.40;99.90;;;;;;5060614;28;20134;-67
2022/11/16 01:52:51;;;;;;;2.60;0.40;;;9.40;99.90;;;;;;5056227;28;20415;-67
2022/11/16 01:55:35;;;;;;;6.43;0.60;;;9.40;99.90;;;;;;5052087;28;20119;-68
2022/11/16 01:58:02;;;;;;;4.25;2.00;;;9.40;99.90;;;;;;5055130;28;20435;-74
2022/11/16 02:00:28;;;;;;;9.45;1.35;;;9.40;99.90;;;;;;5052487;28;20028;-72
2022/11/16 02:02:54;;;;;;;6.88;0.70;;;9.40;99.90;;;;;;5051238;28;20033;-71
2022/11/16 02:05:29;;;;;;;4.72;0.47;;;9.50;99.90;;;;;;5062348;28;20150;-71
2022/11/16 02:11:30;;;;;;;2.40;0.13;;;9.70;99.90;;;;;;5055494;28;20387;-73
2022/11/16 02:14:23;;;;;;;3.20;0.30;;;9.70;99.90;;;;;;5046055;28;20017;-72
2022/11/16 02:17:00;;;;;;;1.05;0.17;;;9.60;99.90;;;;;;5035693;28;20441;-74
2022/11/16 02:19:38;;;;;;;3.38;0.50;;;9.60;99.90;;;;;;5077977;28;20380;-71
2022/11/16 02:22:36;;;;;;;2.10;0.22;;;9.50;99.90;;;;;;5058386;28;20384;-71
2022/11/16 02:25:15;;;;;;;0.65;0.20;;;9.40;99.90;;;;;;5060953;28;20033;-71
2022/11/16 02:27:56;;;;;;;7.05;0.57;;;9.30;99.90;;;;;;5059536;28;20066;-70
2022/11/16 02:30:22;;;;;;;2.95;0.30;;;9.40;99.90;;;;;;5059323;28;20025;-69
2022/11/16 02:33:08;;;;;;;4.07;0.32;;;9.40;99.90;;;;;;5058038;28;20036;-69
2022/11/16 02:36:01;;;;;;;5.38;0.45;;;9.40;99.90;;;;;;5049426;28;20029;-68
2022/11/16 02:38:30;;;;;;;3.75;1.10;;;9.30;99.90;;;;;;5050330;28;20100;-68
2022/11/16 02:41:10;;;;;;;5.80;0.70;;;9.30;99.90;;;;;;5063824;28;20154;-67
2022/11/16 02:43:46;;;;;;;7.13;1.00;;;9.50;99.90;;;;;;5056591;28;20125;-68
2022/11/16 02:46:22;;;;;;;7.15;0.60;;;9.60;99.90;;;;;;5052541;28;20510;-68
2022/11/16 02:48:53;;;;;;;4.70;0.40;;;9.70;99.90;;;;;;5059194;28;20411;-68
2022/11/16 02:51:20;;;;;;;9.55;1.00;;;9.80;99.90;;;;;;5056660;28;20485;-67
2022/11/16 02:54:11;;;;;;;9.68;0.95;;;10.00;99.90;;;;;;5062499;28;20119;-67
2022/11/16 02:56:46;;;;;;;7.97;0.75;;;10.20;99.90;;;;;;5049731;28;20081;-66
2022/11/16 02:59:12;;;;;;;5.38;0.73;;;10.30;99.90;;;;;;5054219;28;20043;-68
2022/11/16 03:01:43;;;;;;;10.43;1.00;;;10.30;99.90;;;;;;5064170;28;20043;-67
2022/11/16 03:04:19;;;;;;;7.60;1.00;;;10.40;99.90;;;;;;5044215;28;20026;-67
2022/11/16 03:06:47;;;;;;;6.80;1.00;;;10.40;99.90;;;;;;5058306;28;20021;-67
2022/11/16 03:09:27;;;;;;;8.20;1.17;;;10.60;99.90;;;;;;5069078;28;20044;-67
2022/11/16 03:11:58;;;;;;;5.07;1.15;;;10.80;99.90;;;;;;5063950;28;20020;-67
2022/11/16 03:14:43;;;;;;;9.02;1.23;;;10.90;99.90;;;;;;5046752;28;20056;-66
2022/11/16 03:17:30;;;;;;;7.10;1.67;;;10.90;99.90;;;;;;5059827;28;20090;-67
2022/11/16 03:20:16;;;;;;;2.70;0.52;;;11.00;99.90;;;;;;5068034;28;20021;-66
2022/11/16 03:23:07;;;;;;;6.95;1.15;;;11.00;99.90;;;;;;5068865;28;20033;-67
2022/11/16 03:25:42;;;;;;;12.52;2.17;;;11.00;99.90;;;;;;5054244;28;20128;-66
2022/11/16 03:28:24;;;;;;;8.23;1.60;;;11.00;99.90;;;;;;5059441;28;20451;-67
2022/11/16 03:31:06;;;;;;;10.20;1.55;;;11.00;99.90;;;;;;5056282;28;20029;-66
2022/11/16 03:33:54;;;;;;;9.63;1.05;;;11.00;99.90;;;;;;5054326;28;20123;-66
2022/11/16 03:36:41;;;;;;;6.45;1.00;;;11.00;99.90;;;;;;5047235;28;20090;-66
2022/11/16 03:39:14;;;;;;;10.40;0.95;;;11.10;99.90;;;;;;5057904;28;20036;-66
2022/11/16 03:41:42;;;;;;;7.63;1.05;;;11.10;99.90;;;;;;5057118;28;20029;-67
2022/11/16 03:44:11;;;;;;;7.53;1.55;;;11.10;99.90;;;;;;5063924;28;20127;-67
2022/11/16 03:46:38;;;;;;;6.60;0.80;;;11.00;99.90;;;;;;5055963;28;20047;-67
2022/11/16 03:49:05;;;;;;;5.45;0.93;;;11.00;99.90;;;;;;5065314;28;20111;-67
2022/11/16 03:51:30;;;;;;;9.50;1.10;;;11.00;99.90;;;;;;5058991;28;20029;-67
2022/11/16 03:53:56;;;;;;;6.03;1.13;;;11.00;99.90;;;;;;5067954;28;20514;-67
2022/11/16 03:56:22;;;;;;;4.80;0.80;;;11.00;99.90;;;;;;5058951;28;20444;-67
2022/11/16 03:58:48;;;;;;;8.90;1.40;;;11.10;99.90;;;;;;5061287;28;20025;-67
2022/11/16 04:01:13;;;;;;;5.50;1.20;;;11.10;99.90;;;;;;5052916;28;20037;-67
2022/11/16 04:03:39;;;;;;;7.30;1.45;;;11.10;99.90;;;;;;5063990;28;20036;-66
2022/11/16 04:25:42;;;;;;;8.13;1.52;;;11.20;99.90;;;;;;5050658;28;20079;-66
2022/11/16 04:28:15;;;;;;;5.65;1.30;;;11.20;99.90;;;;;;5041911;28;20056;-66
2022/11/16 04:39:01;;;;;;;5.57;0.70;;;11.30;99.90;;;;;;5063114;28;20191;-65
2022/11/16 04:47:55;;;;;;;6.28;0.70;;;11.30;99.90;;;;;;5042885;28;20087;-72
2022/11/16 04:50:21;;;;;;;5.72;0.90;;;11.10;99.90;;;;;;5034263;28;20030;-71
2022/11/16 04:52:46;;;;;;;5.53;0.90;;;11.00;99.90;;;;;;5031317;28;20220;-69
2022/11/16 04:55:12;;;;;;;7.00;0.90;;;10.90;99.90;;;;;;5031254;28;20018;-68
2022/11/16 04:57:38;;;;;;;3.83;0.63;;;10.90;99.90;;;;;;5033181;28;20143;-68
2022/11/16 05:00:06;;;;;;;4.47;0.65;;;11.00;99.90;;;;;;5031073;28;20561;-65
2022/11/16 05:02:31;;;;;;;6.95;1.13;;;11.00;99.90;;;;;;5034582;28;20038;-69
2022/11/16 05:04:57;;;;;;;2.80;1.10;;;11.00;99.90;;;;;;5040331;28;20091;-68
2022/11/16 05:07:23;;;;;;;10.95;1.30;;;11.00;99.90;;;;;;5033330;28;20381;-68
2022/11/16 05:09:48;;;;;;;5.97;1.27;;;11.00;99.90;;;;;;5033077;28;20451;-69
2022/11/16 05:12:17;;;;;;;7.25;1.55;;;11.20;99.90;;;;;;5036495;28;20037;-68
2022/11/16 05:14:43;;;;;;;5.97;0.77;;;11.20;99.90;;;;;;5032503;28;20087;-67
2022/11/16 05:17:10;;;;;;;8.18;1.05;;;11.20;99.90;;;;;;5039074;28;20104;-68
2022/11/16 05:22:20;;;;;;;8.65;1.30;;;11.30;99.90;;;;;;5050886;28;20637;-68
2022/11/16 05:24:45;;;;;;;6.32;1.30;;;11.30;99.90;;;;;;5055318;28;20468;-67
2022/11/16 05:27:14;;;;;;;8.60;1.73;;;11.30;99.90;;;;;;5063475;28;20029;-67
2022/11/16 05:29:41;;;;;;;6.22;1.30;;;11.30;99.90;;;;;;5037019;28;20056;-68
2022/11/16 05:32:08;;;;;;;10.05;1.92;;;11.30;99.90;;;;;;5057901;28;20035;-67
2022/11/16 05:34:41;;;;;;;10.65;1.35;;;11.30;99.90;;;;;;5054984;28;20020;-70
2022/11/16 05:40:10;;;;;;;;;;;10.90;99.90;;;;;;5051017;28;20011;-68
2022/11/16 05:42:35;;;;;;;2.75;0.80;;;10.10;99.90;;;;;;5062074;28;20265;-84
2022/11/16 05:45:01;;;;;;;8.55;0.73;;;9.80;99.90;;;;;;5050593;28;20032;-78
2022/11/16 05:47:27;;;;;;;5.35;1.20;;;9.60;99.90;;;;;;5050592;28;20059;-75
2022/11/16 05:49:53;;;;;;;5.43;0.90;;;9.60;99.90;;;;;;5053443;28;20021;-75
2022/11/16 05:52:18;;;;;;;4.10;0.88;;;9.70;99.90;;;;;;5040974;28;20029;-74
2022/11/16 05:54:44;;;;;;;4.20;0.57;;;9.80;99.90;;;;;;5052141;28;20501;-72
2022/11/16 05:57:10;;;;;;;9.90;1.75;;;9.90;99.90;;;;;;5039499;28;20034;-75
2022/11/16 05:59:35;;;;;;;4.55;0.50;;;10.10;99.90;;;;;;5052074;28;20033;-75
2022/11/16 06:02:03;;;;;;;8.05;1.02;;;10.20;99.90;;;;;;5043886;28;20033;-72
2022/11/16 06:05:00;;;;;;;8.70;1.67;;;10.30;99.90;;;;;;5042100;28;20056;-71
2022/11/16 06:07:26;;;;;;;3.25;1.02;;;10.50;99.90;;;;;;5047160;28;20029;-78
2022/11/16 06:09:52;;;;;;;4.03;1.08;;;10.50;99.90;;;;;;5050048;28;20090;-76
2022/11/16 06:12:17;;;;;;;9.20;1.10;;;10.50;99.90;;;;;;5054841;28;20037;-73
2022/11/16 06:14:43;;;;;;;6.55;1.23;;;10.60;99.90;;;;;;5042973;28;20044;-71
2022/11/16 06:17:13;;;;;;;9.10;0.70;;;10.50;99.90;;;;;;5048745;28;20040;-73
2022/11/16 06:19:39;;;;;;;2.50;0.43;;;10.50;99.90;;;;;;5051785;28;20033;-75
2022/11/16 06:22:05;;;;;;;1.52;0.43;;;10.30;99.90;;;;;;5056121;28;20037;-75
2022/11/16 06:24:31;;;;;;;2.65;0.80;;;10.20;99.90;;;;;;5048212;28;20059;-74
2022/11/16 06:26:57;;;;;;;4.90;0.73;;;10.10;99.90;;;;;;5062157;28;20036;-73
2022/11/16 06:29:23;;;;;;;4.50;1.30;;;10.10;99.90;;;;;;5058754;28;20079;-71
2022/11/16 06:31:49;;;;;;;8.70;1.40;;;10.10;99.90;;;;;;5047525;28;20025;-73
2022/11/16 06:34:15;;;;;;;13.00;1.38;;;10.20;99.90;;;;;;5067124;28;20107;-79
2022/11/16 06:36:41;;;;;;;1.75;0.43;;;10.20;99.90;;;;;;5063172;28;20464;-71
2022/11/16 06:39:06;;;;;;;10.50;1.33;;;10.20;99.90;;;;;;5059525;28;20033;-76
2022/11/16 06:41:33;;;;;;;7.60;1.70;;;10.10;99.90;;;;;;5037823;28;20033;-77
2022/11/16 06:43:59;;;;;;;5.40;0.80;;;10.00;99.90;;;;;;5052548;28;20120;-70
2022/11/16 06:46:24;;;;;;;4.95;0.63;;;9.80;99.90;;;;;;5046210;28;20048;-77
2022/11/16 06:48:50;;;;;;;2.10;0.75;;;9.70;99.90;;;;;;5058445;28;20028;-79
2022/11/16 06:51:16;;;;;;;10.20;1.83;;;9.70;99.90;;;;;;5067010;28;20040;-79
2022/11/16 06:53:42;;;;;;;6.40;1.27;;;9.80;99.90;;;;;;5059481;28;20040;-76
2022/11/16 06:56:11;;;;;;;10.85;1.50;;;9.80;99.90;;;;;;5054635;28;20041;-73
2022/11/16 06:58:36;;;;;;;3.80;1.05;;;9.90;99.90;;;;;;5053322;28;20025;-71
2022/11/16 07:01:10;;;;;;;5.35;1.10;;;10.00;99.90;;;;;;5060157;28;20376;-71
2022/11/16 07:03:36;;;;;;;6.28;1.95;;;10.30;99.90;;;;;;5052105;28;20029;-70
2022/11/16 07:06:12;;;;;;;5.03;0.65;;;10.50;99.90;;;;;;5062700;28;20403;-72
2022/11/16 07:08:38;;;;;;;5.82;0.77;;;10.50;99.90;;;;;;5052818;28;20036;-71
2022/11/16 07:11:07;;;;;;;3.63;1.08;;;10.50;99.90;;;;;;5059872;28;20028;-69
2022/11/16 07:13:36;;;;;;;8.63;1.25;;;10.50;99.90;;;;;;5055674;28;20025;-69
2022/11/16 07:16:07;;;;;;;14.07;3.65;;;10.60;99.90;;;;;;5067142;28;20044;-70
2022/11/16 07:18:34;;;;;;;3.63;0.80;;;10.70;99.90;;;;;;5055366;28;20029;-71
2022/11/16 07:21:05;;;;;;;3.85;0.93;;;10.60;99.90;;;;;;5065617;28;20028;-71
2022/11/16 07:23:31;;;;;;;13.02;1.45;;;10.50;99.90;;;;;;5059838;28;20029;-81
2022/11/16 07:26:00;;;;;;;4.78;0.75;;;10.50;99.90;;;;;;5054959;28;20029;-75
2022/11/16 07:28:30;;;;;;;12.77;1.30;;;10.50;99.90;;;;;;5053168;28;20021;-75
2022/11/16 07:31:04;;;;;;;9.88;1.40;;;10.50;99.90;;;;;;5061959;28;20047;-83
2022/11/16 07:33:30;;;;;;;6.10;1.27;;;10.40;99.90;;;;;;5056992;28;20389;-83
2022/11/16 07:36:25;;;;;;;4.22;1.27;;;10.30;99.90;;;;;;5055079;28;20029;-79
2022/11/16 07:38:51;;;;;;;4.65;1.40;;;10.40;99.90;;;;;;5047313;28;20040;-75
2022/11/16 07:41:18;;;;;;;10.55;1.40;;;10.40;99.90;;;;;;5047049;28;20040;-74
2022/11/16 07:43:44;;;;;;;14.93;1.42;;;10.50;99.90;;;;;;5053507;28;20036;-73
2022/11/16 07:46:19;;;;;;;8.05;1.70;;;10.60;99.90;;;;;;5062312;28;20025;-72
2022/11/16 07:48:44;;;;;;;15.07;1.42;;;10.60;99.90;;;;;;5057073;28;20032;-71
2022/11/16 07:51:13;;;;;;;5.72;1.55;;;10.50;99.90;;;;;;5061217;28;20029;-71
2022/11/16 07:53:40;;;;;;;7.20;1.20;;;10.50;99.90;;;;;;5053037;28;20568;-70
2022/11/16 07:56:07;;;;;;;12.90;1.23;;;10.40;99.90;;;;;;5052766;28;20036;-71
2022/11/16 07:58:34;;;;;;;10.02;0.93;;;10.30;99.90;;;;;;5059682;28;20518;-71
2022/11/16 08:01:05;;;;;;;11.27;1.65;;;10.30;99.90;;;;;;5065722;28;20036;-71
2022/11/16 08:03:31;;;;;;;4.13;0.68;;;10.20;99.90;;;;;;5047494;28;20021;-71
2022/11/16 08:06:02;;;;;;;12.05;1.13;;;10.20;99.90;;;;;;5051460;28;20029;-70
2022/11/16 08:08:28;;;;;;;7.53;1.50;;;10.20;99.90;;;;;;5055012;28;20033;-68
2022/11/16 08:11:01;;;;;;;7.82;0.90;;;10.20;99.90;;;;;;5058487;28;20511;-68
2022/11/16 08:13:30;;;;;;;9.77;0.77;;;10.20;99.90;;;;;;5046254;28;20103;-70
2022/11/16 08:16:03;;;;;;;6.95;1.05;;;10.30;99.90;;;;;;5058258;28;20179;-72
2022/11/16 08:18:29;;;;;;;6.13;0.80;;;10.30;99.90;;;;;;5054998;28;20038;-72
2022/11/16 08:20:57;;;;;;;7.72;1.05;;;10.40;99.90;;;;;;5036975;28;20029;-71
2022/11/16 08:23:23;;;;;;;4.75;1.27;;;10.50;99.90;;;;;;5052599;28;20025;-79
2022/11/16 08:25:49;;;;;;;11.98;1.17;;;10.50;99.90;;;;;;5041850;28;20028;-84
2022/11/16 08:28:14;;;;;;;5.80;0.80;;;10.50;99.90;;;;;;5050046;28;20028;-80
2022/11/16 08:30:40;;;;;;;6.60;1.80;;;10.50;99.90;;;;;;5045570;28;20079;-80
2022/11/16 08:33:08;;;;;;;3.15;0.45;;;10.30;99.90;;;;;;5047819;28;20029;-77
2022/11/16 08:35:35;;;;;;;3.30;0.50;;;10.30;99.90;;;;;;5038996;28;20079;-74
2022/11/16 08:38:01;;;;;;;3.53;0.40;;;10.30;99.90;;;;;;5045500;28;20074;-73
2022/11/16 08:40:27;;;;;;;1.92;0.57;;;10.20;99.90;;;;;;5046234;28;20036;-72
2022/11/16 08:42:55;;;;;;;8.02;0.80;;;10.20;99.90;;;;;;5050191;28;20041;-70
2022/11/16 08:45:22;;;;;;;3.60;0.57;;;10.10;99.90;;;;;;5044945;28;20035;-70
2022/11/16 08:47:48;;;;;;;2.15;0.77;;;10.10;99.90;;;;;;5043796;28;20037;-70
2022/11/16 08:50:15;;;;;;;3.85;1.63;;;10.20;99.90;;;;;;5049125;28;20017;-70
2022/11/16 08:52:41;;;;;;;3.65;0.60;;;10.30;99.90;;;;;;5047436;28;20389;-70
2022/11/16 08:55:09;;;;;;;12.85;1.98;;;10.40;99.90;;;;;;5043803;28;20025;-70
2022/11/16 08:57:35;;;;;;;5.53;0.80;;;10.50;99.90;;;;;;5045902;28;20418;-69
2022/11/16 09:00:01;;;;;;;4.47;0.43;;;10.50;99.90;;;;;;5052110;28;20456;-69
2022/11/16 09:02:27;;;;;;;8.40;1.52;;;10.50;99.90;;;;;;5042564;28;20027;-70
2022/11/16 09:04:53;;;;;;;5.13;0.60;;;10.50;99.90;;;;;;5057439;28;20033;-71
2022/11/16 09:07:19;;;;;;;6.43;0.70;;;10.60;99.90;;;;;;5039693;28;20497;-71
2022/11/16 09:09:45;;;;;;;8.50;1.75;;;10.60;99.90;;;;;;5035336;28;20061;-70
2022/11/16 09:12:11;;;;;;;5.03;0.55;;;10.60;99.90;;;;;;5047645;28;20036;-69
2022/11/16 09:14:37;;;;;;;6.57;0.90;;;10.70;99.90;;;;;;5040913;28;20045;-71
2022/11/16 09:17:03;;;;;;;2.65;0.40;;;10.70;99.90;;;;;;5043974;28;20073;-71
2022/11/16 09:19:29;;;;;;;4.38;1.02;;;10.70;99.90;;;;;;5047560;28;20025;-69
2022/11/16 09:21:54;;;;;;;6.25;1.38;;;10.80;99.90;;;;;;5041917;28;20040;-67
2022/11/16 09:24:20;;;;;;;7.78;1.45;;;10.90;99.90;;;;;;5050653;28;20463;-69
2022/11/16 09:26:46;;;;;;;9.82;1.17;;;11.20;99.90;;;;;;5038213;28;20397;-70
2022/11/16 09:29:13;;;;;;;2.70;0.65;;;11.40;99.90;;;;;;5045073;28;20044;-73
2022/11/16 09:31:50;;;;;;;8.27;1.20;;;11.50;99.90;;;;;;5038593;28;20443;-75
2022/11/16 09:34:15;;;;;;;7.22;1.10;;;11.90;99.90;;;;;;5039129;28;20511;-73
2022/11/16 09:36:41;;;;;;;6.18;0.63;;;12.20;99.90;;;;;;5042175;28;20047;-74
2022/11/16 09:39:44;;;;;;;5.63;0.65;;;12.30;99.90;;;;;;5047865;28;20033;-77
2022/11/16 09:42:31;;;;;;;6.13;1.00;;;12.10;99.90;;;;;;5028916;28;20071;-65
2022/11/16 09:45:00;;;;;;;6.22;0.80;;;11.40;99.90;;;;;;5041606;28;20515;-66
2022/11/16 09:47:44;;;;;;;1.73;0.30;;;10.70;99.90;;;;;;5046871;28;20892;-65
2022/11/16 09:50:37;;;;;;;6.35;0.65;;;10.30;99.90;;;;;;5043368;28;20036;-66
2022/11/16 09:53:47;;;;;;;3.08;1.13;;;10.10;99.90;;;;;;5042656;28;20032;-71
2022/11/16 09:56:26;;;;;;;5.95;1.33;;;10.10;99.90;;;;;;5028245;28;20343;-71
2022/11/16 09:59:03;;;;;;;7.40;0.93;;;10.10;99.90;;;;;;5042576;28;20045;-71
2022/11/16 10:01:55;;;;;;;7.78;0.98;;;10.20;99.90;;;;;;5027138;28;20029;-75
2022/11/16 10:04:46;;;;;;;3.40;0.75;;;10.20;99.90;;;;;;5015893;28;20531;-79
2022/11/16 10:07:16;;;;;;;3.25;0.55;;;10.10;99.90;;;;;;5022011;28;20060;-75
2022/11/16 10:09:45;;;;;;;5.93;1.90;;;10.10;99.90;;;;;;5024308;28;20596;-78
2022/11/16 10:12:26;;;;;;;5.55;1.45;;;10.10;99.90;;;;;;5022974;28;20137;-75
2022/11/16 10:15:03;;;;;;;2.53;0.88;;;10.10;99.90;;;;;;5018031;28;20061;-73
2022/11/16 10:17:30;;;;;;;5.03;1.33;;;10.10;99.90;;;;;;5014981;28;20061;-72
2022/11/16 10:20:04;;;;;;;9.38;1.85;;;10.40;99.90;;;;;;5021908;28;20402;-72
2022/11/16 10:22:58;;;;;;;10.13;2.05;;;10.60;99.90;;;;;;5017053;28;20037;-72
2022/11/16 10:25:35;;;;;;;4.68;1.10;;;10.90;99.90;;;;;;5019468;28;20036;-72
2022/11/16 10:28:35;;;;;;;6.85;1.10;;;11.20;99.90;;;;;;5018425;28;20116;-70
2022/11/16 10:31:08;;;;;;;8.80;1.35;;;11.40;99.90;;;;;;5029624;28;20071;-70
2022/11/16 10:33:35;;;;;;;4.43;2.40;;;11.40;99.90;;;;;;5039273;28;20341;-70
2022/11/16 10:36:10;;;;;;;7.75;0.98;;;11.30;99.90;;;;;;5042690;28;21487;-69
2022/11/16 10:38:38;;;;;;;8.63;2.42;;;11.20;99.90;;;;;;5037800;28;20039;-69
2022/11/16 10:41:19;;;;;;;5.97;0.70;;;11.20;99.90;;;;;;5041013;28;20025;-68
2022/11/16 10:43:46;;;;;;;8.68;1.77;;;11.00;99.90;;;;;;5027587;28;20077;-69
2022/11/16 10:46:24;;;;;;;7.03;1.00;;;11.00;99.90;;;;;;5041809;28;20090;-69
2022/11/16 10:49:33;;;;;;;9.38;2.10;;;11.10;99.90;;;;;;5043266;28;20037;-68
2022/11/16 10:51:58;;;;;;;6.20;1.77;;;11.30;99.90;;;;;;5036278;28;20029;-68
2022/11/16 10:54:24;;;;;;;5.00;1.05;;;11.50;99.90;;;;;;5043936;28;20033;-68
2022/11/16 10:57:03;;;;;;;3.15;0.90;;;11.70;99.90;;;;;;5044720;28;20037;-67
2022/11/16 10:59:47;;;;;;;12.85;1.77;;;12.00;99.90;;;;;;5044180;28;20024;-68
2022/11/16 11:02:22;;;;;;;2.20;0.57;;;12.00;99.90;;;;;;5042546;28;20035;-68
2022/11/16 11:05:06;;;;;;;5.10;1.23;;;11.90;99.90;;;;;;5049823;28;20032;-68
2022/11/16 11:07:36;;;;;;;5.47;1.10;;;12.40;99.90;;;;;;5041450;28;20035;-67
2022/11/16 11:10:04;;;;;;;9.55;2.10;;;12.80;99.90;;;;;;5046528;28;20036;-68
2022/11/16 11:12:38;;;;;;;7.13;1.65;;;12.70;99.90;;;;;;5034381;28;21273;-66
2022/11/16 11:15:10;;;;;;;15.43;1.77;;;12.70;99.90;;;;;;5045105;28;20056;-68
2022/11/16 11:17:37;;;;;;;6.53;1.23;;;12.60;99.90;;;;;;5042994;28;20025;-69
2022/11/16 11:21:04;;;;;;;6.75;1.17;;;13.10;99.90;;;;;;5050282;28;20045;-70
2022/11/16 11:23:25;;;;;;;5.70;1.15;;;13.60;99.90;;;;;;5066443;28;20452;-69
2022/11/16 11:25:59;;;;;;;4.22;0.60;;;14.00;99.90;;;;;;5047350;28;20139;-67
2022/11/16 11:28:30;;;;;;;6.18;1.02;;;13.70;99.90;;;;;;5044460;28;20022;-68
2022/11/16 11:31:08;;;;;;;5.68;1.67;;;13.60;99.90;;;;;;5048493;28;20041;-67
2022/11/16 11:33:47;;;;;;;4.07;0.93;;;13.40;99.90;;;;;;5048855;28;20372;-67
2022/11/16 11:36:26;;;;;;;9.45;1.02;;;13.40;99.90;;;;;;5048618;28;20033;-67
2022/11/16 11:39:24;;;;;;;4.88;1.48;;;13.60;99.90;;;;;;5043432;28;20025;-67
2022/11/16 11:42:04;;;;;;;9.35;1.38;;;13.80;99.90;;;;;;5045807;28;20031;-67
2022/11/16 11:44:43;;;;;;;5.13;0.70;;;14.20;99.90;;;;;;5045750;28;20029;-68
2022/11/16 11:47:47;;;;;;;6.93;1.55;;;14.20;99.90;;;;;;5047721;28;20025;-67
2022/11/16 11:50:27;;;;;;;3.25;0.80;;;13.50;99.90;;;;;;5034101;28;20037;-68
2022/11/16 11:52:59;;;;;;;5.47;1.48;;;12.90;99.90;;;;;;5054863;28;20036;-67
2022/11/16 11:55:25;;;;;;;7.55;0.70;;;12.60;99.90;;;;;;5047511;28;20121;-68
2022/11/16 11:57:52;;;;;;;7.05;0.80;;;12.40;99.90;;;;;;5050477;28;20076;-68
2022/11/16 12:00:19;;;;;;;8.40;1.20;;;12.10;99.90;;;;;;5029011;28;20112;-69
2022/11/16 12:02:54;;;;;;;4.03;1.05;;;12.00;99.90;;;;;;5040672;28;20166;-72
2022/11/16 12:05:47;;;;;;;4.28;0.98;;;11.70;99.90;;;;;;5045892;28;20158;-73
2022/11/16 12:08:19;;;;;;;6.90;0.95;;;11.40;99.90;;;;;;5049167;28;20029;-72
2022/11/16 12:10:54;;;;;;;5.30;1.52;;;11.20;99.90;;;;;;5045219;28;20177;-74
2022/11/16 12:14:02;;;;;;;4.15;0.82;;;11.10;99.90;;;;;;5038191;28;20500;-75
2022/11/16 12:16:31;;;;;;;6.20;1.38;;;11.00;99.90;;;;;;5046706;28;20135;-77
2022/11/16 12:19:24;;;;;;;4.95;1.45;;;11.00;99.90;;;;;;5053437;28;20041;-66
2022/11/16 12:22:18;;;;;;;5.32;0.85;;;10.90;99.90;;;;;;5048314;28;20044;-76
2022/11/16 12:25:01;;;;;;;4.93;0.60;;;10.90;99.90;;;;;;5051927;28;20150;-75
2022/11/16 12:28:06;;;;;;;3.55;1.42;;;10.90;99.90;;;;;;5040371;28;20037;-75
2022/11/16 12:30:35;;;;;;;4.10;0.75;;;10.80;99.90;;;;;;5043139;28;20516;-72
2022/11/16 12:33:15;;;;;;;4.22;0.80;;;10.90;99.90;;;;;;5042305;28;20040;-72
2022/11/16 12:36:08;;;;;;;6.50;0.68;;;10.90;99.90;;;;;;5045723;28;20089;-72
2022/11/16 12:38:42;;;;;;;;;;;11.00;99.90;;;;;;5049811;28;20045;-70
2022/11/16 12:41:30;;;;;;;5.95;1.08;;;11.00;99.90;;;;;;5042484;28;19908;-69
2022/11/16 12:44:01;;;;;;;7.07;0.80;;;11.10;99.90;;;;;;5039387;28;20120;-70
2022/11/16 12:46:55;;;;;;;7.68;1.23;;;11.30;99.90;;;;;;5043214;28;20066;-69
2022/11/16 12:49:27;;;;;;;9.20;1.10;;;11.40;99.90;;;;;;5050616;28;20025;-69
2022/11/16 12:52:11;;;;;;;13.13;1.70;;;11.50;99.90;;;;;;5048121;28;20028;-69
2022/11/16 12:54:49;;;;;;;8.25;1.60;;;11.60;99.90;;;;;;5055687;28;20033;-69
2022/11/16 12:57:31;;;;;;;11.45;2.05;;;11.70;99.90;;;;;;5043792;28;20107;-68
2022/11/16 13:00:05;;;;;;;15.05;1.50;;;12.00;99.90;;;;;;5050732;28;20024;-69
2022/11/16 13:02:37;;;;;;;11.40;1.67;;;12.10;99.90;;;;;;5045842;28;20025;-69
2022/11/16 13:05:14;;;;;;;14.98;2.15;;;12.10;99.90;;;;;;5054723;28;20131;-69
2022/11/16 13:08:06;;;;;;;7.88;2.78;;;12.10;99.90;;;;;;5047560;28;20056;-68
2022/11/16 13:10:41;;;;;;;6.93;1.20;;;12.00;99.90;;;;;;5049661;28;20049;-67
2022/11/16 13:13:18;;;;;;;13.98;1.45;;;11.90;99.90;;;;;;5038979;28;20484;-67
2022/11/16 13:15:46;;;;;;;11.68;1.52;;;11.70;99.90;;;;;;5048429;28;20065;-68
2022/11/16 13:18:16;;;;;;;14.00;3.05;;;11.60;99.90;;;;;;5042837;28;20045;-69
2022/11/16 13:21:15;;;;;;;9.77;2.08;;;11.50;99.90;;;;;;5045446;28;20083;-69
2022/11/16 13:24:05;;;;;;;6.97;1.73;;;11.50;99.90;;;;;;5050971;28;20480;-68
2022/11/16 13:26:42;;;;;;;13.93;2.55;;;11.40;99.90;;;;;;5046937;28;20468;-71
2022/11/16 13:29:20;;;;;;;11.73;2.70;;;11.50;99.90;;;;;;5044929;28;20686;-79
2022/11/16 13:31:54;;;;;;;9.05;1.73;;;11.50;99.90;;;;;;5047833;28;20025;-75
2022/11/16 13:34:31;;;;;;;17.23;4.95;;;11.30;99.90;;;;;;5038117;28;20357;-72
2022/11/16 13:36:57;;;;;;;12.80;2.35;;;11.30;99.90;;;;;;5042570;28;20397;-72
2022/11/16 13:39:57;;;;;;;14.25;2.25;;;11.30;99.90;;;;;;5042148;28;20017;-75
2022/11/16 13:42:23;;;;;;;14.75;2.10;;;11.30;99.90;;;;;;5037029;28;20021;-80
2022/11/16 13:44:50;;;;;;;8.68;1.40;;;11.40;99.90;;;;;;5042217;28;20044;-79
2022/11/16 13:47:26;;;;;;;13.90;2.75;;;11.30;99.90;;;;;;5045759;28;20456;-76
2022/11/16 13:49:55;;;;;;;10.35;2.00;;;11.30;99.90;;;;;;5042075;28;20064;-73
2022/11/16 13:52:21;;;;;;;6.32;1.05;;;11.20;99.90;;;;;;5043452;28;20116;-73
2022/11/16 13:54:50;;;;;;;7.03;1.27;;;11.20;99.90;;;;;;5047370;28;20112;-72
2022/11/16 13:57:26;;;;;;;6.82;1.35;;;11.20;99.90;;;;;;5037682;28;20045;-71
2022/11/16 14:00:00;;;;;;;5.53;1.17;;;11.30;99.90;;;;;;5044137;28;20021;-70
2022/11/16 14:02:40;;;;;;;11.32;1.80;;;11.30;99.90;;;;;;5043420;28;20025;-70